Flight Track Log - Related Links

Times and Time Zones

All times are in EDT time to prevent confusion due to time zone crossing. See the BHS282 flight status page for this flight to view local times or setup timezone preferences in your user account.

Time Position Orientation Groundspeed Altitude Reporting Facility
EDT Latitude Longitude Course Direction KTS MPH feet Rate Location/Type
Sat 12:58:00 PM 26.6662 -79.7405 90° East  Level Estimated
Sat 12:58:18 PM 26.7278 -79.9875 90° East 240 276 6,000  Level Miami Center
Sat 12:59:00 PM 26.6666 -79.6694 90° East  Level FlightAware Approximate
Sat 12:59:18 PM 26.7144 -79.9242 103° East 252 290 6,000  Level Miami Center
Sat 01:00:00 PM 26.6630 -79.5984 90° East  Level Estimated
Sat 01:00:18 PM 26.6975 -79.8353 102° East 267 307 6,000  Level Miami Center
Sat 01:01:00 PM 26.6653 -79.5274 88° East  Level FlightAware Approximate
Sat 01:01:18 PM 26.6822 -79.7653 104° East 267 307 6,900  Level Miami Center
Sat 01:02:00 PM 26.6614 -79.4564 90° East  Level Estimated
Sat 01:02:18 PM 26.6794 -79.6931 92° East 223 257 8,600  Level Miami Center
Sat 01:03:00 PM 26.6575 -79.3854 90° East  Level Estimated
Sat 01:03:18 PM 26.6786 -79.6350 91° East 204 235 9,700  Level Miami Center
Sat 01:04:18 PM 26.6778 -79.5675 91° East 193 222 10,800 1,000 Climbing Miami Center
Sat 01:05:18 PM 26.6747 -79.5069 93° East 198 228 11,700 950 Climbing Miami Center
Sat 01:06:18 PM 26.6717 -79.4442 93° East 198 228 12,700 650 Climbing Miami Center
Sat 01:07:18 PM 26.6664 -79.3789 95° East 198 228 13,000 300 Climbing Miami Center
Sat 01:08:18 PM 26.6617 -79.3022 94° East 231 266 13,300 700 Climbing Miami Center
Sat 01:09:18 PM 26.6586 -79.2325 93° East 238 274 14,400 800 Climbing Miami Center
Sat 01:10:18 PM 26.6533 -79.1603 95° East 233 268 14,900 300 Climbing Miami Center
Sat 01:11:18 PM 26.6503 -79.0881 93° East 233 268 15,000 50 Climbing Miami Center
Sat 01:12:18 PM 26.6431 -79.0089 96° East 245 282 15,000  Level Miami Center
Sat 01:13:18 PM 26.6403 -78.9275 92° East 251 289 15,000  Level Miami Center
Sat 01:14:18 PM 26.6331 -78.8436 95° East 262 302 15,000  Level Miami Center
Sat 01:15:18 PM 26.6319 -78.7647 91° East 257 296 15,000  Level Miami Center
Sat 01:16:18 PM 26.6183 -78.6831 101° East 257 296 15,000  Level Miami Center
Sat 01:17:18 PM 26.6150 -78.6111 93° East 252 290 15,000  Level Miami Center
Sat 01:18:18 PM 26.6097 -78.5272 94° East 252 290 15,000  Level Miami Center
Sat 01:19:18 PM 26.6044 -78.4483 94° East 259 298 15,000  Level Miami Center
Sat 01:20:18 PM 26.6011 -78.3622 92° East 259 298 15,000  Level Miami Center
Sat 01:21:18 PM 26.5978 -78.2761 92° East 264 304 15,000  Level Miami Center
Sat 01:22:18 PM 26.5903 -78.1972 96° East 254 292 15,000  Level Miami Center
Sat 01:23:18 PM 26.5844 -78.1250 95° East 256 295 15,000  Level Miami Center
Sat 01:24:18 PM 26.5811 -78.0367 92° East 262 302 15,000 -500 Level Miami Center
Sat 01:25:18 PM 26.5714 -77.9575 98° East 262 302 14,000 -1,250 Descending Miami Center
Sat 01:26:18 PM 26.5658 -77.8600 94° East 281 323 12,500 -1,450 Descending Miami Center
Sat 01:27:18 PM 26.5581 -77.7739 96° East 281 323 11,100 -1,450 Descending Miami Center
Sat 01:28:18 PM 26.5522 -77.6856 94° East 287 330 9,600 -1,500 Descending Miami Center

Login

Don't have an account? Register now (free) for customized features, flight alerts, and more!